NCAR-RAP Real-Time Weather Data

Output produced by METARs form (12 August 2020  17:25 UTC)
found at http://weather.rap.ucar.edu/surface/
 
KSPS 121652Z 23007KT 10SM CLR 36/22 A2993 RMK AO2 SLP119 T03560217
KSPS 121552Z 20013KT 10SM CLR 33/21 A2992 RMK AO2 SLP115 T03330211
KSPS 121452Z 21011KT 10SM CLR 30/21 A2993 RMK AO2 SLP117 T03000206 51009
KSPS 121352Z 17006KT 10SM FEW150 27/21 A2993 RMK AO2 SLP117 T02720211
KSPS 121252Z 10005KT 10SM CLR 23/22 A2992 RMK AO2 SLP115 T02330217
KSPS 121152Z 10003KT 10SM CLR 22/21 A2990 RMK AO2 SLP108 T02220211 10278 20222 53008
KSPS 121052Z 10003KT 10SM CLR 22/21 A2988 RMK AO2 SLP101 T02220211
KSPS 120952Z 07004KT 10SM CLR 23/21 A2987 RMK AO2 SLP099 T02280211
KSPS 120852Z 10004KT 10SM CLR 23/22 A2987 RMK AO2 SLP099 T02330217 58004
KSPS 120752Z 08007KT 10SM CLR 24/22 A2988 RMK AO2 SLP101 T02390217
KSPS 120652Z 08005KT 10SM CLR 26/21 A2989 RMK AO2 SLP104 T02560206
KSPS 120552Z 08006KT 10SM CLR 28/20 A2988 RMK AO2 SLP102 T02780200 10367 20272 403830228 51008
KSPS 120452Z 14010KT 10SM CLR 28/20 A2987 RMK AO2 SLP098 T02830200
KSPS 120352Z 13007KT 10SM CLR 29/20 A2987 RMK AO2 SLP100 T02890200
KSPS 120252Z 13008KT 10SM CLR 31/19 A2986 RMK AO2 SLP095 T03110194 53012
KSPS 120152Z 11007KT 10SM CLR 32/20 A2984 RMK AO2 SLP088 T03220200
KSPS 120052Z 12007KT 10SM CLR 35/20 A2983 RMK AO2 SLP085 T03500200
KSPS 112352Z 18006KT 10SM FEW150 37/19 A2982 RMK AO2 SLP083 T03670189 10383 20344 56012
KSPS 112252Z 21006KT 10SM FEW150 38/19 A2983 RMK AO2 SLP085 T03780189
KSPS 112152Z 14009G15KT 10SM SCT150 38/19 A2984 RMK AO2 SLP089 T03780194
KSPS 112052Z 23008KT 10SM SCT150 37/21 A2986 RMK AO2 SLP095 T03720206 58022